Bass Brook, Minnesota
Current Conditions -  °F | °C
As of 9:15 PM on Sunday 21 Dec 2014 (Local Time) from KGPZ Reporting Station
Overcast Overcast  
Wind Chill: 26°   Ceiling: 300
Heat Index: 32°   Visibility: 2mi
Dew Point: 30°   Wind: 6mph
Humidity: 93%   Direction: 140°SE
Pressure: 29.66"   Gusts: NA
Location:  47.2371°N, 93.6985°W
Report Text: KGPZ 220315Z AUTO 14005KT 2SM OVC003 00/M01 A2966 RMK AO1
Loading
Personal Weather Stations






























Interactive Weather Map New forecast layout! Learn more

10-Day Weather Forecast

Advertisements
Track Severe Weather on mobile